Time;durP1;ratioP1;P1;durP2;ratioP2;P2;SDS_P1;SDS_P2;PMS_P1;PMS_P2;Temp;Humidity;BMP_temperature;BMP_pressure;BME280_temperature;BME280_humidity;BME280_pressure;Samples;Min_cycle;Max_cycle;Signal;HPM_P1;HPM_P2
2021/09/27 00:01:16;;;;;;;;;;;;;;;22.56;53.13;101338.34;6211667;22;96805;-89
2021/09/27 00:03:47;;;;;;;;;;;;;;;22.46;53.43;101335.47;6212220;22;98651;-90
2021/09/27 00:06:14;;;;;;;;;;;;;;;22.29;53.80;101338.59;6214726;22;96453;-90
2021/09/27 00:08:46;;;;;;;;;;;;;;;21.99;55.04;101335.50;6213322;22;96321;-89
2021/09/27 00:17:07;;;;;;;;;;;;;;;22.43;53.69;101334.88;6211874;22;97401;-86
2021/09/27 00:19:35;;;;;;;;;;;;;;;22.26;54.52;101338.81;6189382;22;95875;-86
2021/09/27 00:35:39;;;;;;;;;;;;;;;22.13;55.01;101338.00;6183363;22;98731;-83
2021/09/27 00:38:06;;;;;;;;;;;;;;;22.06;55.19;101339.44;6184460;22;96972;-82
2021/09/27 00:48:48;;;;;;;;;;;;;;;22.25;54.92;101342.50;6182832;22;98496;-88
2021/09/27 00:51:18;;;;;;;;;;;;;;;22.19;55.18;101338.41;6158737;22;96013;-89
2021/09/27 00:53:52;;;;;;;;;;;;;;;22.06;55.47;101336.75;6183167;22;96625;-88
2021/09/27 00:56:23;;;;;;;;;;;;;;;22.04;55.55;101336.03;6182238;22;98924;-90
2021/09/27 00:58:52;;;;;;;;;;;;;;;22.02;55.52;101336.13;6157255;22;99300;-89
2021/09/27 01:01:20;;;;;;;;;;;;;;;21.87;56.42;101334.53;6151248;22;96454;-91
2021/09/27 01:04:05;;;;;;;;;;;;;;;22.04;56.01;101336.88;6156033;22;96008;-90
2021/09/27 01:06:40;;;;;;;;;;;;;;;22.06;55.89;101336.75;6179489;22;98248;-88
2021/09/27 01:17:47;;;;;;;;;;;;;;;22.05;55.86;101335.06;6168995;22;98830;-91
2021/09/27 01:23:28;;;;;;;;;;;;;;;21.90;56.35;101331.63;6174420;22;96468;-92
2021/09/27 01:26:07;;;;;;;;;;;;;;;21.88;56.34;101334.41;6174501;22;97256;-91
2021/09/27 01:28:48;;;;;;;;;;;;;;;21.79;56.71;101332.38;6175798;22;98136;-90
2021/09/27 01:31:39;;;;;;;;;;;;;;;21.77;56.76;101323.59;6176051;22;98140;-91
2021/09/27 01:34:26;;;;;;;;;;;;;;;21.83;56.63;101320.47;6176417;22;96743;-91
2021/09/27 01:37:07;;;;;;;;;;;;;;;22.00;56.03;101330.00;6147810;22;96810;-92
2021/09/27 01:39:41;;;;;;;;;;;;;;;21.92;56.22;101328.81;6175892;22;99679;-89
2021/09/27 01:44:59;;;;;;;;;;;;;;;21.73;56.98;101329.28;6174985;22;96627;-90
2021/09/27 01:47:31;;;;;;;;;;;;;;;21.88;56.49;101334.41;6176328;22;96623;-87
2021/09/27 01:50:03;;;;;;;;;;;;;;;21.74;56.99;101336.38;6175810;22;96865;-89
2021/09/27 01:52:34;;;;;;;;;;;;;;;21.83;56.64;101341.97;6180237;22;96795;-88
2021/09/27 01:55:06;;;;;;;;;;;;;;;21.74;57.12;101341.78;6183034;22;96387;-87
2021/09/27 01:57:38;;;;;;;;;;;;;;;21.79;56.93;101340.47;6156303;22;96918;-90
2021/09/27 02:00:07;;;;;;;;;;;;;;;21.48;57.77;101340.97;6156601;22;98194;-89
2021/09/27 02:02:38;;;;;;;;;;;;;;;21.59;57.46;101342.91;6173893;22;98007;-90
2021/09/27 02:05:13;;;;;;;;;;;;;;;21.57;57.53;101351.06;6143910;22;96548;-90
2021/09/27 02:10:31;;;;;;;;;;;;;;;21.96;56.31;101354.56;6168371;22;99726;-90
2021/09/27 02:13:05;;;;;;;;;;;;;;;21.99;56.20;101360.56;6168293;22;97704;-89
2021/09/27 02:15:37;;;;;;;;;;;;;;;21.82;56.63;101356.38;6168043;22;96467;-89
2021/09/27 02:18:06;;;;;;;;;;;;;;;21.68;56.76;101353.84;6168979;22;96940;-90
2021/09/27 02:20:34;;;;;;;;;;;;;;;21.86;56.51;101355.19;6167752;22;98137;-91
2021/09/27 02:23:07;;;;;;;;;;;;;;;21.54;57.35;101356.66;6168326;22;97731;-88
2021/09/27 02:25:52;;;;;;;;;;;;;;;21.24;58.35;101359.72;6170642;22;97019;-90
2021/09/27 02:28:34;;;;;;;;;;;;;;;21.52;57.72;101355.06;6172425;22;97322;-90
2021/09/27 02:31:07;;;;;;;;;;;;;;;21.63;57.26;101366.75;6145428;22;98903;-89
2021/09/27 02:33:45;;;;;;;;;;;;;;;21.56;57.46;101370.84;6171786;22;99412;-89
2021/09/27 02:36:15;;;;;;;;;;;;;;;21.73;56.69;101372.31;6169727;22;96933;-89
2021/09/27 02:41:34;;;;;;;;;;;;;;;21.46;57.62;101377.88;6168994;22;96574;-89
2021/09/27 02:46:54;;;;;;;;;;;;;;;21.37;58.18;101381.22;6176819;22;96703;-89
2021/09/27 02:52:05;;;;;;;;;;;;;;;21.47;57.60;101376.88;6179807;22;97639;-90
2021/09/27 02:54:48;;;;;;;;;;;;;;;21.39;58.08;101376.59;6180675;22;99861;-89
2021/09/27 02:57:31;;;;;;;;;;;;;;;21.53;57.57;101381.81;6182894;22;95913;-87
2021/09/27 03:00:03;;;;;;;;;;;;;;;21.40;57.88;101383.66;6184018;22;96583;-87
2021/09/27 03:02:37;;;;;;;;;;;;;;;21.45;57.54;101373.47;6156122;22;97855;-90
2021/09/27 03:05:09;;;;;;;;;;;;;;;21.43;57.78;101372.69;6182954;22;98268;-88
2021/09/27 03:07:47;;;;;;;;;;;;;;;21.51;57.51;101385.59;6180808;22;96595;-90
2021/09/27 03:10:24;;;;;;;;;;;;;;;21.51;57.50;101378.41;6149473;22;96634;-89
2021/09/27 03:13:03;;;;;;;;;;;;;;;21.37;58.12;101382.06;6171550;22;97199;-89
2021/09/27 03:15:51;;;;;;;;;;;;;;;21.01;59.31;101385.44;6172101;22;99977;-89
2021/09/27 03:18:44;;;;;;;;;;;;;;;21.44;57.95;101387.88;6182218;22;96397;-88
2021/09/27 03:24:14;;;;;;;;;;;;;;;21.36;58.24;101388.41;6148526;22;98524;-90
2021/09/27 03:26:47;;;;;;;;;;;;;;;21.37;57.87;101379.38;6174754;22;100063;-90
2021/09/27 03:29:20;;;;;;;;;;;;;;;21.27;58.20;101378.28;6181620;22;96329;-89
2021/09/27 03:31:54;;;;;;;;;;;;;;;21.38;57.82;101364.13;6183391;22;96561;-89
2021/09/27 03:34:33;;;;;;;;;;;;;;;21.53;57.60;101370.22;6181694;22;100380;-84
2021/09/27 03:42:27;;;;;;;;;;;;;;;21.64;57.15;101355.03;6139456;22;99053;-90
2021/09/27 03:44:58;;;;;;;;;;;;;;;21.80;56.90;101358.31;6152913;22;96886;-91
2021/09/27 03:47:33;;;;;;;;;;;;;;;21.75;56.86;101357.81;6126377;23;96511;-89
2021/09/27 03:50:07;;;;;;;;;;;;;;;21.82;56.67;101353.69;6153068;22;95898;-90
2021/09/27 03:52:43;;;;;;;;;;;;;;;21.82;56.45;101355.53;6127100;22;96492;-90
2021/09/27 03:58:07;;;;;;;;;;;;;;;21.80;56.55;101344.88;6151869;22;98727;-88
2021/09/27 04:00:43;;;;;;;;;;;;;;;21.64;56.92;101349.66;6153156;22;96316;-88
2021/09/27 04:06:18;;;;;;;;;;;;;;;21.50;57.56;101349.78;6145702;22;97172;-91
2021/09/27 04:08:58;;;;;;;;;;;;;;;21.71;56.79;101350.94;6140385;23;98130;-90
2021/09/27 04:11:33;;;;;;;;;;;;;;;21.75;56.68;101340.81;6138748;23;96422;-91
2021/09/27 04:14:04;;;;;;;;;;;;;;;21.79;56.62;101351.22;6112953;23;96748;-91
2021/09/27 04:16:55;;;;;;;;;;;;;;;22.00;55.90;101346.13;6184867;22;98836;-87
2021/09/27 04:19:24;;;;;;;;;;;;;;;21.77;56.59;101345.13;6199120;22;97872;-90
2021/09/27 04:21:55;;;;;;;;;;;;;;;21.94;56.30;101345.69;6198055;22;96542;-91
2021/09/27 04:24:30;;;;;;;;;;;;;;;21.82;56.35;101345.63;6198456;22;96814;-90
2021/09/27 04:27:17;;;;;;;;;;;;;;;21.86;56.42;101349.81;6206859;22;99009;-92
2021/09/27 04:30:02;;;;;;;;;;;;;;;21.96;56.00;101338.41;6204754;22;100124;-88
2021/09/27 04:32:39;;;;;;;;;;;;;;;22.11;55.80;101330.06;6201909;22;96606;-91
2021/09/27 04:35:13;;;;;;;;;;;;;;;21.78;56.70;101333.38;6176274;22;96554;-92
2021/09/27 04:37:43;;;;;;;;;;;;;;;21.83;56.47;101341.97;6203168;22;101090;-92
2021/09/27 04:40:11;;;;;;;;;;;;;;;22.02;55.76;101346.91;6205230;22;96954;-92
2021/09/27 04:43:05;;;;;;;;;;;;;;;21.80;56.28;101355.63;6207034;22;96559;-92
2021/09/27 04:45:51;;;;;;;;;;;;;;;21.80;56.55;101363.72;6212227;22;96664;-91
2021/09/27 04:51:23;;;;;;;;;;;;;;;21.80;56.49;101378.97;6209326;22;96644;-87
2021/09/27 04:54:06;;;;;;;;;;;;;;;21.64;57.04;101386.44;6211477;22;95861;-90
2021/09/27 04:56:40;;;;;;;;;;;;;;;21.43;57.80;101388.84;6206731;22;96659;-91
2021/09/27 04:59:21;;;;;;;;;;;;;;;21.46;57.81;101381.41;6177061;22;97572;-89
2021/09/27 05:02:04;;;;;;;;;;;;;;;21.54;57.43;101380.84;6208218;22;98056;-90
2021/09/27 05:04:39;;;;;;;;;;;;;;;21.77;56.90;101384.59;6158692;22;96587;-89
2021/09/27 05:07:15;;;;;;;;;;;;;;;21.43;57.74;101389.69;6210555;22;96552;-91
2021/09/27 05:09:53;;;;;;;;;;;;;;;21.64;57.34;101391.84;6210986;22;99465;-90
2021/09/27 05:12:34;;;;;;;;;;;;;;;21.45;58.04;101398.53;6213268;22;96561;-90
2021/09/27 05:15:37;;;;;;;;;;;;;;;21.60;57.54;101390.31;6213130;22;96237;-89
2021/09/27 05:18:18;;;;;;;;;;;;;;;21.61;57.42;101387.53;6213336;22;97427;-91
2021/09/27 05:21:05;;;;;;;;;;;;;;;21.72;57.13;101393.00;6203462;22;99788;-89
2021/09/27 05:23:44;;;;;;;;;;;;;;;21.65;57.36;101385.50;6195597;22;100865;-89
2021/09/27 05:26:21;;;;;;;;;;;;;;;21.66;57.34;101393.41;6209068;22;96609;-89
2021/09/27 05:31:48;;;;;;;;;;;;;;;21.92;56.67;101390.72;6211423;22;98878;-88
2021/09/27 05:34:20;;;;;;;;;;;;;;;21.82;57.03;101394.06;6212592;22;98882;-84
2021/09/27 05:36:54;;;;;;;;;;;;;;;21.88;57.02;101398.13;6213651;22;95822;-84
2021/09/27 05:39:28;;;;;;;;;;;;;;;21.99;57.11;101402.78;6214658;22;95941;-82
2021/09/27 05:42:01;;;;;;;;;;;;;;;21.90;57.14;101395.34;6214165;22;98261;-83
2021/09/27 05:47:28;;;;;;;;;;;;;;;21.92;57.60;101398.78;6147801;22;96132;-82
2021/09/27 05:50:02;;;;;;;;;;;;;;;21.82;57.85;101385.13;6154236;22;95832;-82
2021/09/27 05:52:36;;;;;;;;;;;;;;;22.04;57.26;101381.78;6127189;22;97502;-83
2021/09/27 05:57:56;;;;;;;;;;;;;;;22.17;57.15;101382.59;6144179;22;95977;-79
2021/09/27 06:00:29;;;;;;;;;;;;;;;22.04;57.65;101382.63;6153517;22;97694;-81
2021/09/27 06:03:08;;;;;;;;;;;;;;;22.26;57.05;101377.38;6151847;22;96789;-82
2021/09/27 06:08:30;;;;;;;;;;;;;;;22.30;57.04;101378.00;6148531;22;96737;-85
2021/09/27 06:11:01;;;;;;;;;;;;;;;22.34;56.82;101370.56;6111892;23;96788;-89
2021/09/27 06:24:24;;;;;;;;;;;;;;;22.03;57.26;101391.69;6116493;23;98911;-89
2021/09/27 06:35:14;;;;;;;;;;;;;;;22.55;56.01;101377.88;6122239;23;97400;-87
2021/09/27 06:37:56;;;;;;;;;;;;;;;22.65;55.73;101378.88;6121749;23;98290;-89
2021/09/27 06:40:31;;;;;;;;;;;;;;;22.93;55.07;101376.81;6120581;23;96483;-90
2021/09/27 06:45:45;;;;;;;;;;;;;;;23.10;54.15;101362.91;6115045;23;99729;-86
2021/09/27 06:48:12;;;;;;;;;;;;;;;23.11;53.99;101363.75;6099594;22;99447;-89
2021/09/27 06:56:01;;;;;;;;;;;;;;;22.98;54.48;101343.13;6145853;23;98525;-92
2021/09/27 06:58:45;;;;;;;;;;;;;;;22.99;54.47;101333.22;6147657;22;99508;-92
2021/09/27 07:01:45;;;;;;;;;;;;;;;23.19;53.96;101337.91;6148148;22;96471;-91
2021/09/27 07:04:19;;;;;;;;;;;;;;;23.56;52.79;101343.97;6149628;22;96358;-93
2021/09/27 07:09:49;;;;;;;;;;;;;;;23.78;52.15;101337.69;6149337;22;96358;-90
2021/09/27 07:17:19;;;;;;;;;;;;;;;23.52;52.96;101347.88;6148101;22;97274;-91
2021/09/27 07:20:02;;;;;;;;;;;;;;;23.52;52.80;101352.41;6125784;22;97884;-91
2021/09/27 07:22:30;;;;;;;;;;;;;;;23.70;52.19;101367.97;6135109;22;96566;-90
2021/09/27 07:24:57;;;;;;;;;;;;;;;23.70;52.27;101373.38;6144689;23;96632;-91
2021/09/27 07:27:24;;;;;;;;;;;;;;;23.71;52.15;101375.09;6137723;23;99574;-90
2021/09/27 07:29:52;;;;;;;;;;;;;;;23.84;51.89;101369.56;6135571;23;98281;-89
2021/09/27 07:35:36;;;;;;;;;;;;;;;24.13;51.01;101362.66;6146972;22;96987;-91
2021/09/27 07:38:19;;;;;;;;;;;;;;;24.36;50.18;101363.47;6145444;22;96815;-90
2021/09/27 07:40:52;;;;;;;;;;;;;;;24.52;49.67;101360.34;6140511;23;98857;-89
2021/09/27 07:48:54;;;;;;;;;;;;;;;23.96;51.12;101346.97;6135220;22;100084;-89
2021/09/27 07:54:05;;;;;;;;;;;;;;;24.37;50.33;101343.56;6143745;23;96652;-89
2021/09/27 07:56:54;;;;;;;;;;;;;;;24.27;50.21;101355.28;6145399;22;96554;-89
2021/09/27 07:59:26;;;;;;;;;;;;;;;24.52;49.76;101350.38;6139294;23;97026;-89
2021/09/27 08:01:54;;;;;;;;;;;;;;;24.62;49.41;101358.56;6143733;23;99485;-90
2021/09/27 08:04:21;;;;;;;;;;;;;;;24.13;51.17;101351.84;6145073;23;96557;-90
2021/09/27 08:06:48;;;;;;;;;;;;;;;24.41;50.21;101347.75;6149910;23;96365;-90
2021/09/27 08:09:17;;;;;;;;;;;;;;;24.39;50.33;101341.59;6149960;22;99066;-87
2021/09/27 08:11:47;;;;;;;;;;;;;;;24.93;48.98;101343.34;6149208;23;99221;-89
2021/09/27 08:14:14;;;;;;;;;;;;;;;24.89;48.73;101347.25;6150193;22;96426;-91
2021/09/27 08:16:43;;;;;;;;;;;;;;;24.81;48.79;101364.09;6148006;22;96531;-90
2021/09/27 08:19:18;;;;;;;;;;;;;;;25.04;48.53;101362.19;6143629;22;99512;-89
2021/09/27 08:21:53;;;;;;;;;;;;;;;25.06;48.17;101362.91;6147762;22;99813;-91
2021/09/27 08:29:48;;;;;;;;;;;;;;;24.95;48.71;101366.53;6138570;23;98896;-89
2021/09/27 08:32:24;;;;;;;;;;;;;;;24.96;48.89;101370.94;6140431;22;99216;-91
2021/09/27 08:34:57;;;;;;;;;;;;;;;25.10;48.84;101372.47;6138282;23;96687;-89
2021/09/27 08:42:50;;;;;;;;;;;;;;;24.60;49.89;101382.16;6139475;23;97720;-88
2021/09/27 08:45:19;;;;;;;;;;;;;;;24.70;50.23;101385.78;6141382;23;97542;-92
2021/09/27 08:48:13;;;;;;;;;;;;;;;24.88;49.64;101389.63;6122311;23;96533;-90
2021/09/27 08:53:41;;;;;;;;;;;;;;;24.92;49.10;101382.16;6124395;22;99421;-89
2021/09/27 08:56:11;;;;;;;;;;;;;;;24.90;49.05;101382.28;6151276;22;95900;-88
2021/09/27 08:58:47;;;;;;;;;;;;;;;25.17;48.67;101372.78;6148194;22;96540;-89
2021/09/27 09:04:12;;;;;;;;;;;;;;;24.93;49.34;101382.03;6148000;22;98529;-89
2021/09/27 09:06:40;;;;;;;;;;;;;;;24.71;49.74;101381.25;6149729;22;95899;-89
2021/09/27 09:09:14;;;;;;;;;;;;;;;24.86;49.37;101386.22;6150300;22;96654;-89
2021/09/27 09:11:46;;;;;;;;;;;;;;;24.79;49.88;101379.63;6149309;22;99903;-90
2021/09/27 09:14:20;;;;;;;;;;;;;;;24.65;50.21;101379.94;6146195;22;100331;-93
2021/09/27 09:17:40;;;;;;;;;;;;;;;24.59;50.62;101367.81;6148171;22;96795;-85
2021/09/27 09:29:02;;;;;;;;;;;;;;;25.01;49.90;101384.06;6117152;22;96609;-84
2021/09/27 09:31:33;;;;;;;;;;;;;;;25.02;49.48;101383.06;6108696;23;96745;-85
2021/09/27 09:34:02;;;;;;;;;;;;;;;25.09;49.56;101375.28;6142137;23;99834;-84
2021/09/27 09:36:37;;;;;;;;;;;;;;;25.12;49.70;101375.03;6117193;22;99167;-92
2021/09/27 09:39:29;;;;;;;;;;;;;;;25.01;49.70;101371.41;6151864;22;96413;-85
2021/09/27 09:41:57;;;;;;;;;;;;;;;24.94;49.65;101372.91;6150755;22;96104;-91
2021/09/27 09:44:44;;;;;;;;;;;;;;;25.10;48.99;101369.75;6151720;22;96895;-88
2021/09/27 09:47:21;;;;;;;;;;;;;;;25.02;49.46;101378.53;6152061;22;100145;-84
2021/09/27 09:58:04;;;;;;;;;;;;;;;25.24;49.28;101379.38;6145507;22;96406;-93
2021/09/27 10:03:29;;;;;;;;;;;;;;;25.37;48.68;101388.13;6146331;23;96521;-91
2021/09/27 10:05:58;;;;;;;;;;;;;;;25.48;48.36;101392.59;6146037;22;98713;-85
2021/09/27 10:08:26;;;;;;;;;;;;;;;25.54;48.28;101383.94;6122050;22;97468;-92
2021/09/27 10:10:55;;;;;;;;;;;;;;;25.47;48.07;101385.50;6151341;22;96113;-89
2021/09/27 10:13:34;;;;;;;;;;;;;;;25.33;48.60;101392.13;6150977;22;96504;-89
2021/09/27 10:16:02;;;;;;;;;;;;;;;25.27;48.54;101387.25;6150125;22;98099;-89
2021/09/27 10:18:32;;;;;;;;;;;;;;;25.49;48.27;101387.06;6151071;22;97936;-88
2021/09/27 10:21:01;;;;;;;;;;;;;;;25.47;48.40;101386.31;6151592;22;95778;-87
2021/09/27 10:23:30;;;;;;;;;;;;;;;25.80;47.34;101390.63;6152245;22;96538;-90
2021/09/27 10:28:51;;;;;;;;;;;;;;;25.90;46.92;101385.25;6150665;22;98766;-89
2021/09/27 10:34:07;;;;;;;;;;;;;;;26.13;47.05;101401.13;6148830;22;96016;-85
2021/09/27 10:36:36;;;;;;;;;;;;;;;25.97;47.24;101384.59;6153303;22;98365;-84
2021/09/27 10:39:05;;;;;;;;;;;;;;;25.99;47.18;101384.44;6153134;22;99048;-87
2021/09/27 10:41:35;;;;;;;;;;;;;;;25.98;47.03;101380.03;6152949;22;95908;-85
2021/09/27 10:44:22;;;;;;;;;;;;;;;25.82;47.59;101374.25;6154341;22;95942;-85
2021/09/27 10:52:55;;;;;;;;;;;;;;;25.91;47.66;101373.44;6151263;22;97597;-84
2021/09/27 10:55:47;;;;;;;;;;;;;;;25.95;47.53;101364.03;6152620;22;96529;-84
2021/09/27 11:01:35;;;;;;;;;;;;;;;26.38;46.78;101364.59;6150746;22;99019;-85
2021/09/27 11:04:02;;;;;;;;;;;;;;;26.27;47.05;101370.13;6151286;22;95822;-84
2021/09/27 11:06:32;;;;;;;;;;;;;;;26.36;46.99;101368.44;6152947;22;96574;-86
2021/09/27 11:09:09;;;;;;;;;;;;;;;26.36;46.92;101355.75;6152240;22;99781;-80
2021/09/27 11:17:26;;;;;;;;;;;;;;;26.51;46.29;101359.75;6150367;22;96286;-82
2021/09/27 11:20:15;;;;;;;;;;;;;;;26.68;45.70;101357.31;6151818;22;100290;-84
2021/09/27 11:25:49;;;;;;;;;;;;;;;26.90;45.42;101347.06;6152197;22;95990;-88
2021/09/27 11:28:29;;;;;;;;;;;;;;;26.80;45.50;101351.59;6152561;22;96022;-87
2021/09/27 11:31:23;;;;;;;;;;;;;;;26.98;45.21;101354.44;6150018;22;99520;-88
2021/09/27 11:33:56;;;;;;;;;;;;;;;26.81;45.41;101353.31;6082761;22;99316;-89
2021/09/27 11:39:17;;;;;;;;;;;;;;;26.76;45.44;101358.31;6146576;22;96217;-90
2021/09/27 11:44:54;;;;;;;;;;;;;;;26.73;45.85;101360.44;6145402;23;96628;-91
2021/09/27 11:50:27;;;;;;;;;;;;;;;26.65;45.52;101352.19;6150086;22;96087;-87
2021/09/27 11:59:14;;;;;;;;;;;;;;;26.62;45.57;101347.91;6183205;22;95833;-93
2021/09/27 12:12:28;;;;;;;;;;;;;;;26.48;45.74;101341.06;6133296;23;96815;-92
2021/09/27 12:17:45;;;;;;;;;;;;;;;25.88;47.22;101347.50;6069733;22;100984;-79
2021/09/27 12:34:15;;;;;;;;;;;;;;;26.59;45.47;101335.47;6152772;22;95963;-87
2021/09/27 12:44:31;;;;;;;;;;;;;;;26.87;45.28;101339.16;6145535;22;100155;-83
2021/09/27 13:06:17;;;;;;;;;;;;;;;26.20;47.41;101350.84;5421520;22;15785027;-92
2021/09/27 13:08:47;;;;;;;;;;;;;;;26.34;47.20;101343.31;6097119;23;96478;-92
2021/09/27 13:11:31;;;;;;;;;;;;;;;26.38;47.45;101351.06;6093127;23;96830;-84
2021/09/27 13:14:33;;;;;;;;;;;;;;;26.15;47.73;101349.53;6069537;23;96800;-85
2021/09/27 13:17:09;;;;;;;;;;;;;;;25.89;48.59;101346.50;6079611;22;100979;-92
2021/09/27 13:25:11;;;;;;;;;;;;;;;25.88;49.12;101343.94;6157964;22;98744;-89
2021/09/27 13:33:36;;;;;;;;;;;;;;;26.30;48.39;101336.50;6157721;22;96707;-82
2021/09/27 13:46:33;;;;;;;;;;;;;;;26.62;47.79;101325.34;6184720;22;97338;-90
2021/09/27 13:49:03;;;;;;;;;;;;;;;26.49;48.12;101325.66;6136336;22;99857;-81
2021/09/27 13:51:38;;;;;;;;;;;;;;;26.51;48.08;101321.81;6130527;23;96155;-87
2021/09/27 13:54:23;;;;;;;;;;;;;;;26.42;48.45;101316.38;6130066;23;96770;-85
2021/09/27 13:56:54;;;;;;;;;;;;;;;25.97;49.14;101307.91;6130591;23;97340;-81
2021/09/27 13:59:22;;;;;;;;;;;;;;;25.54;50.56;101300.91;6131406;22;98700;-87
2021/09/27 14:01:51;;;;;;;;;;;;;;;25.00;51.49;101302.13;6131106;23;95832;-85
2021/09/27 14:07:00;;;;;;;;;;;;;;;26.11;49.10;101305.66;6116727;23;96729;-89
2021/09/27 14:09:28;;;;;;;;;;;;;;;25.99;49.38;101308.63;6118140;23;97425;-89
2021/09/27 14:11:58;;;;;;;;;;;;;;;25.93;49.95;101311.91;6117626;23;95947;-89
2021/09/27 14:14:27;;;;;;;;;;;;;;;26.05;49.49;101321.59;6116259;23;96458;-89
2021/09/27 14:17:11;;;;;;;;;;;;;;;26.18;49.32;101314.06;6115281;23;96538;-88
2021/09/27 14:22:53;;;;;;;;;;;;;;;25.69;50.40;101314.97;6120243;23;95893;-89
2021/09/27 14:30:54;;;;;;;;;;;;;;;25.54;50.44;101311.75;6121189;23;98793;-86
2021/09/27 14:33:22;;;;;;;;;;;;;;;25.12;51.48;101316.41;6124069;23;97639;-85
2021/09/27 14:35:50;;;;;;;;;;;;;;;25.33;50.69;101316.38;6120058;22;96147;-90
2021/09/27 14:38:25;;;;;;;;;;;;;;;25.47;50.56;101313.28;6091977;23;96848;-86
2021/09/27 14:40:56;;;;;;;;;;;;;;;25.54;50.36;101319.84;6078522;23;98866;-89
2021/09/27 14:43:30;;;;;;;;;;;;;;;25.66;50.02;101313.41;6089661;23;96487;-90
2021/09/27 14:46:20;;;;;;;;;;;;;;;25.54;50.66;101327.97;6089706;23;96287;-90
2021/09/27 14:54:25;;;;;;;;;;;;;;;25.57;50.56;101322.34;6125071;22;96006;-86
2021/09/27 14:57:01;;;;;;;;;;;;;;;25.58;50.35;101323.19;6153121;22;95961;-90
2021/09/27 14:59:28;;;;;;;;;;;;;;;25.23;51.55;101323.56;6142293;23;98037;-88
2021/09/27 15:05:04;;;;;;;;;;;;;;;25.34;51.60;101323.47;6153882;22;96686;-83
2021/09/27 15:07:31;;;;;;;;;;;;;;;24.90;52.56;101314.72;6153675;22;96726;-87
2021/09/27 15:20:26;;;;;;;;;;;;;;;25.06;51.90;101321.50;6162691;22;96841;-86
2021/09/27 15:23:00;;;;;;;;;;;;;;;25.18;51.63;101320.41;6162118;22;100794;-87
2021/09/27 15:25:34;;;;;;;;;;;;;;;25.27;51.71;101315.03;6144039;23;96511;-89
2021/09/27 15:30:49;;;;;;;;;;;;;;;25.21;52.06;101321.00;6145011;23;99761;-90
2021/09/27 15:33:19;;;;;;;;;;;;;;;25.33;51.67;101328.06;6144545;23;100998;-91
2021/09/27 15:38:25;;;;;;;;;;;;;;;25.22;52.05;101327.25;6118029;22;99925;-79
2021/09/27 15:40:53;;;;;;;;;;;;;;;25.21;52.09;101328.25;6147634;22;100544;-83
2021/09/27 15:46:17;;;;;;;;;;;;;;;25.04;52.87;101329.72;6139421;23;96720;-87
2021/09/27 15:48:44;;;;;;;;;;;;;;;25.18;52.44;101321.28;6140274;23;96815;-87
2021/09/27 15:51:11;;;;;;;;;;;;;;;25.14;52.56;101319.81;6140512;22;99047;-86
2021/09/27 15:53:48;;;;;;;;;;;;;;;24.95;52.97;101323.28;6118034;23;98305;-88
2021/09/27 15:58:42;;;;;;;;;;;;;;;24.93;52.98;101325.28;6141056;22;108661;-88
2021/09/27 16:01:12;;;;;;;;;;;;;;;24.90;53.40;101327.38;6140371;23;96683;-86
2021/09/27 16:03:43;;;;;;;;;;;;;;;24.71;53.83;101332.59;6149788;22;97916;-88
2021/09/27 16:06:14;;;;;;;;;;;;;;;24.89;53.27;101334.63;6152214;22;96305;-86
2021/09/27 16:11:23;;;;;;;;;;;;;;;24.94;53.03;101337.78;6152191;22;99086;-84
2021/09/27 16:13:50;;;;;;;;;;;;;;;24.83;53.82;101345.94;6145641;23;98990;-86
2021/09/27 16:16:19;;;;;;;;;;;;;;;24.87;53.25;101339.28;6150213;22;96035;-84
2021/09/27 16:18:53;;;;;;;;;;;;;;;24.71;53.83;101333.47;6143741;22;96559;-85
2021/09/27 16:21:20;;;;;;;;;;;;;;;24.81;53.55;101338.97;6138521;23;97645;-86
2021/09/27 16:23:49;;;;;;;;;;;;;;;24.69;53.61;101338.13;6110343;23;97788;-84
2021/09/27 16:26:20;;;;;;;;;;;;;;;24.50;54.04;101341.53;6136704;23;96592;-86
2021/09/27 16:28:48;;;;;;;;;;;;;;;24.48;53.99;101334.59;6135036;23;96515;-85
2021/09/27 16:31:19;;;;;;;;;;;;;;;24.36;54.51;101338.28;6135849;23;97831;-85
2021/09/27 16:34:04;;;;;;;;;;;;;;;24.21;54.98;101340.44;6138736;23;97999;-85
2021/09/27 16:36:37;;;;;;;;;;;;;;;24.22;55.22;101348.41;6140586;23;96803;-89
2021/09/27 16:39:05;;;;;;;;;;;;;;;24.44;54.43;101347.47;6116397;23;96724;-85
2021/09/27 16:41:33;;;;;;;;;;;;;;;24.27;54.88;101347.19;6140861;23;100036;-88
2021/09/27 16:44:03;;;;;;;;;;;;;;;24.46;54.39;101344.66;6143592;23;97652;-86
2021/09/27 16:49:12;;;;;;;;;;;;;;;24.40;54.97;101339.75;6137625;23;96608;-87
2021/09/27 16:54:25;;;;;;;;;;;;;;;24.48;54.84;101348.09;6146505;22;98855;-87
2021/09/27 16:59:48;;;;;;;;;;;;;;;24.56;54.63;101354.53;6147466;23;96006;-91
2021/09/27 17:02:15;;;;;;;;;;;;;;;24.45;54.75;101353.72;6148683;23;98161;-88
2021/09/27 17:04:42;;;;;;;;;;;;;;;24.41;55.06;101352.28;6150244;23;98038;-88
2021/09/27 17:07:29;;;;;;;;;;;;;;;24.41;55.39;101357.69;6149315;22;96064;-87
2021/09/27 17:09:59;;;;;;;;;;;;;;;24.35;55.19;101358.22;6119873;23;96052;-88
2021/09/27 17:12:26;;;;;;;;;;;;;;;24.37;55.34;101362.47;6122514;23;96871;-86
2021/09/27 17:17:52;;;;;;;;;;;;;;;24.32;55.14;101364.72;6151775;22;96613;-88
2021/09/27 17:20:20;;;;;;;;;;;;;;;24.33;55.15;101369.13;6126429;22;96095;-87
2021/09/27 17:22:56;;;;;;;;;;;;;;;24.23;55.61;101366.31;6124599;23;98012;-85
2021/09/27 17:25:30;;;;;;;;;;;;;;;24.25;55.59;101373.44;6147036;23;98559;-86
2021/09/27 17:33:35;;;;;;;;;;;;;;;24.37;55.38;101367.00;6142771;23;98902;-88
2021/09/27 17:44:16;;;;;;;;;;;;;;;24.23;55.64;101371.72;6152224;22;98494;-83
2021/09/27 17:46:47;;;;;;;;;;;;;;;24.24;55.68;101361.78;6127297;22;97751;-85
2021/09/27 17:49:14;;;;;;;;;;;;;;;24.13;55.94;101367.19;6127830;22;96396;-87
2021/09/27 17:54:31;;;;;;;;;;;;;;;24.17;55.80;101358.69;6152334;22;99004;-83
2021/09/27 17:56:59;;;;;;;;;;;;;;;23.90;56.55;101365.50;6153480;22;100198;-81
2021/09/27 17:59:26;;;;;;;;;;;;;;;23.93;56.53;101360.72;6152824;22;96023;-88
2021/09/27 18:04:33;;;;;;;;;;;;;;;24.15;55.66;101359.84;6142434;22;98575;-85
2021/09/27 18:07:00;;;;;;;;;;;;;;;24.15;55.68;101357.13;6149902;22;98061;-85
2021/09/27 18:09:32;;;;;;;;;;;;;;;24.10;55.78;101356.63;6128942;22;96139;-86
2021/09/27 18:14:41;;;;;;;;;;;;;;;24.11;55.71;101363.75;6148941;22;98524;-84
2021/09/27 18:17:12;;;;;;;;;;;;;;;23.99;56.23;101356.66;6151363;22;99170;-89
2021/09/27 18:19:46;;;;;;;;;;;;;;;24.02;56.41;101364.53;6144329;23;96535;-87
2021/09/27 18:22:13;;;;;;;;;;;;;;;24.06;56.08;101363.28;6142361;23;96803;-87
2021/09/27 18:24:49;;;;;;;;;;;;;;;24.03;56.07;101361.66;6145455;23;99908;-87
2021/09/27 18:27:17;;;;;;;;;;;;;;;24.03;56.33;101364.38;6144424;23;97718;-87
2021/09/27 18:32:24;;;;;;;;;;;;;;;23.99;56.42;101367.47;6141397;23;96876;-87
2021/09/27 18:34:52;;;;;;;;;;;;;;;23.88;56.70;101373.75;6116626;23;98752;-88
2021/09/27 18:37:18;;;;;;;;;;;;;;;23.94;56.56;101367.84;6142680;23;100881;-87
2021/09/27 18:39:45;;;;;;;;;;;;;;;23.75;57.31;101371.19;6145856;23;96575;-87
2021/09/27 18:42:15;;;;;;;;;;;;;;;23.80;57.26;101376.19;6095031;23;96652;-88
2021/09/27 18:47:55;;;;;;;;;;;;;;;23.93;56.87;101376.91;6152437;22;99196;-87
2021/09/27 18:50:38;;;;;;;;;;;;;;;23.90;56.80;101371.75;6152502;22;96131;-88
2021/09/27 18:53:06;;;;;;;;;;;;;;;23.70;57.44;101370.66;6150169;22;96563;-88
2021/09/27 18:55:37;;;;;;;;;;;;;;;23.84;57.09;101374.97;6142319;23;98042;-87
2021/09/27 19:01:00;;;;;;;;;;;;;;;23.74;57.57;101380.25;6145376;23;96274;-88
2021/09/27 19:03:39;;;;;;;;;;;;;;;23.92;56.83;101375.19;6146715;23;96363;-87
2021/09/27 19:06:07;;;;;;;;;;;;;;;23.87;57.21;101384.66;6140338;23;98996;-86
2021/09/27 19:09:00;;;;;;;;;;;;;;;23.95;57.02;101384.91;6142368;23;99151;-88
2021/09/27 19:11:34;;;;;;;;;;;;;;;23.82;57.14;101385.91;6150637;22;96434;-87
2021/09/27 19:16:43;;;;;;;;;;;;;;;23.89;57.08;101385.41;6146853;22;96688;-87